sensor_id;sensor_type;location;lat;lon;timestamp;P1;durP1;ratioP1;P2;durP2;ratioP2
12792;SDS011;6460;42.684;23.260;2023-04-08T04:17:11;26.97;;;19.10;;
12792;SDS011;6460;42.684;23.260;2023-04-08T04:19:38;23.87;;;18.83;;
12792;SDS011;6460;42.684;23.260;2023-04-08T04:22:05;25.90;;;19.23;;
12792;SDS011;6460;42.684;23.260;2023-04-08T04:24:32;28.27;;;20.00;;
12792;SDS011;6460;42.684;23.260;2023-04-08T04:26:59;25.90;;;19.43;;
12792;SDS011;6460;42.684;23.260;2023-04-08T04:29:26;24.47;;;19.33;;
12792;SDS011;6460;42.684;23.260;2023-04-08T04:31:53;25.17;;;18.97;;
12792;SDS011;6460;42.684;23.260;2023-04-08T04:34:22;25.43;;;18.73;;
12792;SDS011;6460;42.684;23.260;2023-04-08T04:36:48;29.80;;;20.27;;
12792;SDS011;6460;42.684;23.260;2023-04-08T04:39:16;21.70;;;16.80;;
12792;SDS011;6460;42.684;23.260;2023-04-08T04:41:42;31.17;;;23.73;;
12792;SDS011;6460;42.684;23.260;2023-04-08T04:44:11;30.57;;;21.97;;
12792;SDS011;6460;42.684;23.260;2023-04-08T04:46:38;33.80;;;24.10;;
12792;SDS011;6460;42.684;23.260;2023-04-08T04:49:05;37.67;;;27.67;;
12792;SDS011;6460;42.684;23.260;2023-04-08T04:51:34;38.50;;;28.17;;
12792;SDS011;6460;42.684;23.260;2023-04-08T04:54:01;37.87;;;27.60;;
12792;SDS011;6460;42.684;23.260;2023-04-08T04:56:28;34.17;;;25.00;;
12792;SDS011;6460;42.684;23.260;2023-04-08T04:58:55;32.63;;;24.53;;
12792;SDS011;6460;42.684;23.260;2023-04-08T05:01:22;31.63;;;22.90;;
12792;SDS011;6460;42.684;23.260;2023-04-08T05:03:50;27.20;;;20.27;;
12792;SDS011;6460;42.684;23.260;2023-04-08T05:06:17;26.73;;;20.53;;
12792;SDS011;6460;42.684;23.260;2023-04-08T05:08:46;29.40;;;20.90;;
12792;SDS011;6460;42.684;23.260;2023-04-08T05:11:13;27.33;;;19.57;;
12792;SDS011;6460;42.684;23.260;2023-04-08T05:13:42;26.83;;;20.23;;
12792;SDS011;6460;42.684;23.260;2023-04-08T05:16:09;26.90;;;20.03;;
12792;SDS011;6460;42.684;23.260;2023-04-08T05:18:36;26.53;;;19.90;;
12792;SDS011;6460;42.684;23.260;2023-04-08T05:21:04;27.10;;;20.07;;
12792;SDS011;6460;42.684;23.260;2023-04-08T05:23:31;27.80;;;20.60;;
12792;SDS011;6460;42.684;23.260;2023-04-08T05:25:59;28.57;;;19.73;;
12792;SDS011;6460;42.684;23.260;2023-04-08T05:28:27;26.20;;;20.00;;
12792;SDS011;6460;42.684;23.260;2023-04-08T05:30:54;27.37;;;20.57;;
12792;SDS011;6460;42.684;23.260;2023-04-08T05:33:21;28.90;;;20.10;;
12792;SDS011;6460;42.684;23.260;2023-04-08T05:35:49;27.63;;;20.07;;
12792;SDS011;6460;42.684;23.260;2023-04-08T05:38:17;25.80;;;20.23;;
12792;SDS011;6460;42.684;23.260;2023-04-08T05:40:44;28.20;;;20.17;;
12792;SDS011;6460;42.684;23.260;2023-04-08T05:43:13;27.17;;;20.17;;
12792;SDS011;6460;42.684;23.260;2023-04-08T05:45:40;30.20;;;21.70;;
12792;SDS011;6460;42.684;23.260;2023-04-08T05:48:07;25.87;;;20.40;;
12792;SDS011;6460;42.684;23.260;2023-04-08T05:50:34;25.13;;;20.17;;
12792;SDS011;6460;42.684;23.260;2023-04-08T05:53:01;27.07;;;21.30;;
12792;SDS011;6460;42.684;23.260;2023-04-08T05:55:29;29.20;;;21.73;;
12792;SDS011;6460;42.684;23.260;2023-04-08T05:57:56;26.80;;;21.33;;
12792;SDS011;6460;42.684;23.260;2023-04-08T06:00:24;33.67;;;22.57;;
12792;SDS011;6460;42.684;23.260;2023-04-08T06:02:52;26.37;;;21.17;;
12792;SDS011;6460;42.684;23.260;2023-04-08T06:05:19;28.70;;;20.73;;
12792;SDS011;6460;42.684;23.260;2023-04-08T06:07:46;29.50;;;21.87;;
12792;SDS011;6460;42.684;23.260;2023-04-08T06:10:14;37.33;;;27.53;;
12792;SDS011;6460;42.684;23.260;2023-04-08T06:12:41;36.13;;;28.07;;
12792;SDS011;6460;42.684;23.260;2023-04-08T06:15:08;34.30;;;26.53;;
12792;SDS011;6460;42.684;23.260;2023-04-08T06:17:37;35.43;;;26.37;;
12792;SDS011;6460;42.684;23.260;2023-04-08T06:20:05;35.30;;;26.63;;
12792;SDS011;6460;42.684;23.260;2023-04-08T06:22:33;34.83;;;25.53;;
12792;SDS011;6460;42.684;23.260;2023-04-08T06:25:01;32.93;;;23.70;;
12792;SDS011;6460;42.684;23.260;2023-04-08T06:27:28;29.27;;;22.50;;
12792;SDS011;6460;42.684;23.260;2023-04-08T06:29:55;36.10;;;25.57;;
12792;SDS011;6460;42.684;23.260;2023-04-08T06:32:23;36.27;;;25.10;;
12792;SDS011;6460;42.684;23.260;2023-04-08T06:34:52;42.90;;;26.67;;
12792;SDS011;6460;42.684;23.260;2023-04-08T06:37:19;38.10;;;25.80;;
12792;SDS011;6460;42.684;23.260;2023-04-08T06:39:46;30.23;;;20.97;;
12792;SDS011;6460;42.684;23.260;2023-04-08T06:42:13;31.10;;;22.43;;
12792;SDS011;6460;42.684;23.260;2023-04-08T06:44:40;29.03;;;20.50;;
12792;SDS011;6460;42.684;23.260;2023-04-08T06:47:08;28.50;;;20.30;;
12792;SDS011;6460;42.684;23.260;2023-04-08T06:49:35;25.30;;;18.40;;
12792;SDS011;6460;42.684;23.260;2023-04-08T06:52:04;26.67;;;18.90;;
12792;SDS011;6460;42.684;23.260;2023-04-08T06:54:32;24.83;;;19.27;;
12792;SDS011;6460;42.684;23.260;2023-04-08T06:56:59;22.03;;;17.43;;
12792;SDS011;6460;42.684;23.260;2023-04-08T06:59:26;23.43;;;18.33;;
12792;SDS011;6460;42.684;23.260;2023-04-08T07:01:54;24.23;;;19.27;;
12792;SDS011;6460;42.684;23.260;2023-04-08T07:04:21;29.63;;;18.30;;
12792;SDS011;6460;42.684;23.260;2023-04-08T07:06:48;26.63;;;18.13;;
12792;SDS011;6460;42.684;23.260;2023-04-08T07:09:17;26.03;;;20.27;;
12792;SDS011;6460;42.684;23.260;2023-04-08T07:11:45;24.63;;;19.00;;
12792;SDS011;6460;42.684;23.260;2023-04-08T07:14:12;27.27;;;18.87;;
12792;SDS011;6460;42.684;23.260;2023-04-08T07:16:39;25.10;;;19.47;;
12792;SDS011;6460;42.684;23.260;2023-04-08T07:19:06;24.30;;;18.80;;
12792;SDS011;6460;42.684;23.260;2023-04-08T07:21:33;24.37;;;19.13;;
12792;SDS011;6460;42.684;23.260;2023-04-08T07:24:01;25.97;;;19.00;;
12792;SDS011;6460;42.684;23.260;2023-04-08T07:26:29;28.70;;;17.80;;
12792;SDS011;6460;42.684;23.260;2023-04-08T07:28:56;21.17;;;16.17;;
12792;SDS011;6460;42.684;23.260;2023-04-08T07:31:24;23.93;;;17.53;;
12792;SDS011;6460;42.684;23.260;2023-04-08T07:33:51;19.23;;;16.23;;
12792;SDS011;6460;42.684;23.260;2023-04-08T07:36:18;24.30;;;16.30;;
12792;SDS011;6460;42.684;23.260;2023-04-08T07:38:45;22.23;;;15.70;;
12792;SDS011;6460;42.684;23.260;2023-04-08T07:41:13;18.80;;;14.10;;
12792;SDS011;6460;42.684;23.260;2023-04-08T07:43:41;17.97;;;14.33;;
12792;SDS011;6460;42.684;23.260;2023-04-08T07:46:08;20.83;;;15.03;;
12792;SDS011;6460;42.684;23.260;2023-04-08T07:48:36;16.93;;;13.90;;
12792;SDS011;6460;42.684;23.260;2023-04-08T07:51:03;16.97;;;13.03;;
12792;SDS011;6460;42.684;23.260;2023-04-08T07:53:31;18.43;;;13.50;;
12792;SDS011;6460;42.684;23.260;2023-04-08T07:55:58;16.37;;;13.20;;
12792;SDS011;6460;42.684;23.260;2023-04-08T07:58:28;17.80;;;12.73;;
12792;SDS011;6460;42.684;23.260;2023-04-08T08:00:57;22.07;;;14.63;;
12792;SDS011;6460;42.684;23.260;2023-04-08T08:03:25;16.53;;;13.03;;
12792;SDS011;6460;42.684;23.260;2023-04-08T08:05:52;16.20;;;12.43;;
12792;SDS011;6460;42.684;23.260;2023-04-08T08:08:19;16.73;;;12.90;;
12792;SDS011;6460;42.684;23.260;2023-04-08T08:10:46;16.30;;;12.93;;
12792;SDS011;6460;42.684;23.260;2023-04-08T08:13:13;16.47;;;13.07;;
12792;SDS011;6460;42.684;23.260;2023-04-08T08:15:45;19.60;;;13.70;;
12792;SDS011;6460;42.684;23.260;2023-04-08T08:18:14;21.70;;;14.33;;
12792;SDS011;6460;42.684;23.260;2023-04-08T08:20:41;18.13;;;13.83;;
12792;SDS011;6460;42.684;23.260;2023-04-08T08:23:08;18.97;;;13.67;;
12792;SDS011;6460;42.684;23.260;2023-04-08T08:25:35;15.67;;;13.30;;
12792;SDS011;6460;42.684;23.260;2023-04-08T08:28:03;22.40;;;16.43;;
12792;SDS011;6460;42.684;23.260;2023-04-08T08:30:30;20.80;;;15.20;;
12792;SDS011;6460;42.684;23.260;2023-04-08T08:32:57;18.17;;;14.77;;
12792;SDS011;6460;42.684;23.260;2023-04-08T08:35:26;17.70;;;13.97;;
12792;SDS011;6460;42.684;23.260;2023-04-08T08:37:53;22.60;;;14.20;;
12792;SDS011;6460;42.684;23.260;2023-04-08T08:40:20;16.83;;;14.30;;
12792;SDS011;6460;42.684;23.260;2023-04-08T08:42:48;18.30;;;13.90;;
12792;SDS011;6460;42.684;23.260;2023-04-08T08:45:17;18.00;;;13.83;;
12792;SDS011;6460;42.684;23.260;2023-04-08T08:47:45;15.23;;;12.77;;
12792;SDS011;6460;42.684;23.260;2023-04-08T08:50:12;17.27;;;13.43;;
12792;SDS011;6460;42.684;23.260;2023-04-08T08:52:48;18.20;;;13.13;;
12792;SDS011;6460;42.684;23.260;2023-04-08T08:55:17;18.47;;;14.60;;
12792;SDS011;6460;42.684;23.260;2023-04-08T08:57:44;17.80;;;14.43;;
12792;SDS011;6460;42.684;23.260;2023-04-08T09:00:13;17.17;;;13.73;;
12792;SDS011;6460;42.684;23.260;2023-04-08T09:02:41;18.57;;;14.07;;
12792;SDS011;6460;42.684;23.260;2023-04-08T09:05:09;15.57;;;13.07;;
12792;SDS011;6460;42.684;23.260;2023-04-08T09:07:36;16.30;;;13.60;;
12792;SDS011;6460;42.684;23.260;2023-04-08T09:10:07;18.40;;;14.13;;
12792;SDS011;6460;42.684;23.260;2023-04-08T09:12:36;19.20;;;14.40;;
12792;SDS011;6460;42.684;23.260;2023-04-08T09:15:20;17.30;;;13.90;;
12792;SDS011;6460;42.684;23.260;2023-04-08T09:17:47;15.97;;;12.87;;
12792;SDS011;6460;42.684;23.260;2023-04-08T09:20:14;20.07;;;13.50;;
12792;SDS011;6460;42.684;23.260;2023-04-08T09:22:54;17.30;;;13.60;;
12792;SDS011;6460;42.684;23.260;2023-04-08T09:25:24;21.57;;;14.40;;
12792;SDS011;6460;42.684;23.260;2023-04-08T09:27:52;16.83;;;12.83;;
12792;SDS011;6460;42.684;23.260;2023-04-08T09:30:21;20.63;;;13.67;;
12792;SDS011;6460;42.684;23.260;2023-04-08T09:32:49;20.50;;;14.93;;
12792;SDS011;6460;42.684;23.260;2023-04-08T09:35:17;18.63;;;13.70;;
12792;SDS011;6460;42.684;23.260;2023-04-08T09:37:45;16.80;;;13.67;;
12792;SDS011;6460;42.684;23.260;2023-04-08T09:40:13;17.83;;;13.93;;
12792;SDS011;6460;42.684;23.260;2023-04-08T09:42:44;17.77;;;13.37;;
12792;SDS011;6460;42.684;23.260;2023-04-08T09:45:15;19.17;;;13.30;;
12792;SDS011;6460;42.684;23.260;2023-04-08T09:47:49;15.33;;;13.30;;
12792;SDS011;6460;42.684;23.260;2023-04-08T09:50:25;16.43;;;13.47;;
12792;SDS011;6460;42.684;23.260;2023-04-08T09:52:56;16.77;;;12.50;;
12792;SDS011;6460;42.684;23.260;2023-04-08T09:55:29;15.23;;;12.53;;
12792;SDS011;6460;42.684;23.260;2023-04-08T09:58:03;14.13;;;11.50;;
12792;SDS011;6460;42.684;23.260;2023-04-08T10:00:37;14.37;;;11.47;;
12792;SDS011;6460;42.684;23.260;2023-04-08T10:03:12;13.50;;;11.00;;
12792;SDS011;6460;42.684;23.260;2023-04-08T10:05:49;13.93;;;10.63;;
12792;SDS011;6460;42.684;23.260;2023-04-08T10:08:20;12.13;;;10.57;;
12792;SDS011;6460;42.684;23.260;2023-04-08T10:10:48;13.37;;;10.07;;
12792;SDS011;6460;42.684;23.260;2023-04-08T10:13:17;15.50;;;12.53;;
12792;SDS011;6460;42.684;23.260;2023-04-08T10:15:45;15.90;;;12.03;;
12792;SDS011;6460;42.684;23.260;2023-04-08T10:18:31;15.40;;;12.20;;
12792;SDS011;6460;42.684;23.260;2023-04-08T10:20:59;15.67;;;11.87;;
12792;SDS011;6460;42.684;23.260;2023-04-08T10:26:29;17.23;;;13.43;;
12792;SDS011;6460;42.684;23.260;2023-04-08T10:32:00;15.47;;;11.87;;
12792;SDS011;6460;42.684;23.260;2023-04-08T10:34:27;14.87;;;12.03;;
12792;SDS011;6460;42.684;23.260;2023-04-08T10:36:55;16.40;;;12.87;;
12792;SDS011;6460;42.684;23.260;2023-04-08T10:39:26;14.47;;;12.07;;
12792;SDS011;6460;42.684;23.260;2023-04-08T10:41:53;14.93;;;13.10;;
12792;SDS011;6460;42.684;23.260;2023-04-08T10:44:23;41.57;;;15.30;;
12792;SDS011;6460;42.684;23.260;2023-04-08T10:46:52;18.37;;;12.60;;
12792;SDS011;6460;42.684;23.260;2023-04-08T10:49:21;16.93;;;11.87;;
12792;SDS011;6460;42.684;23.260;2023-04-08T10:51:48;13.00;;;11.57;;
12792;SDS011;6460;42.684;23.260;2023-04-08T10:54:16;15.63;;;12.70;;
12792;SDS011;6460;42.684;23.260;2023-04-08T10:56:44;14.77;;;11.97;;
12792;SDS011;6460;42.684;23.260;2023-04-08T10:59:14;14.43;;;11.17;;
12792;SDS011;6460;42.684;23.260;2023-04-08T11:01:43;17.60;;;14.00;;
12792;SDS011;6460;42.684;23.260;2023-04-08T11:04:12;14.57;;;12.03;;
12792;SDS011;6460;42.684;23.260;2023-04-08T11:06:42;15.00;;;12.77;;
12792;SDS011;6460;42.684;23.260;2023-04-08T11:09:11;15.40;;;12.83;;
12792;SDS011;6460;42.684;23.260;2023-04-08T11:11:40;13.27;;;11.73;;
12792;SDS011;6460;42.684;23.260;2023-04-08T11:14:08;16.67;;;13.17;;
12792;SDS011;6460;42.684;23.260;2023-04-08T11:16:36;19.40;;;15.03;;
12792;SDS011;6460;42.684;23.260;2023-04-08T11:19:04;18.20;;;13.73;;
12792;SDS011;6460;42.684;23.260;2023-04-08T11:21:34;19.37;;;14.43;;
12792;SDS011;6460;42.684;23.260;2023-04-08T11:24:07;29.57;;;16.40;;
12792;SDS011;6460;42.684;23.260;2023-04-08T11:26:37;19.70;;;15.93;;
12792;SDS011;6460;42.684;23.260;2023-04-08T11:29:06;19.33;;;15.47;;
12792;SDS011;6460;42.684;23.260;2023-04-08T11:31:36;19.40;;;12.37;;
12792;SDS011;6460;42.684;23.260;2023-04-08T11:34:04;15.77;;;12.00;;
12792;SDS011;6460;42.684;23.260;2023-04-08T11:36:31;15.70;;;12.37;;
12792;SDS011;6460;42.684;23.260;2023-04-08T11:39:04;14.63;;;11.33;;
12792;SDS011;6460;42.684;23.260;2023-04-08T11:41:36;15.37;;;11.07;;
12792;SDS011;6460;42.684;23.260;2023-04-08T11:44:04;13.50;;;10.23;;
12792;SDS011;6460;42.684;23.260;2023-04-08T11:46:32;16.50;;;11.13;;
12792;SDS011;6460;42.684;23.260;2023-04-08T11:49:01;17.63;;;9.97;;
12792;SDS011;6460;42.684;23.260;2023-04-08T11:51:30;12.80;;;9.73;;
12792;SDS011;6460;42.684;23.260;2023-04-08T11:53:58;14.03;;;10.30;;
12792;SDS011;6460;42.684;23.260;2023-04-08T11:56:28;11.03;;;8.27;;
12792;SDS011;6460;42.684;23.260;2023-04-08T11:58:57;10.57;;;8.53;;
12792;SDS011;6460;42.684;23.260;2023-04-08T12:01:25;12.07;;;9.37;;
12792;SDS011;6460;42.684;23.260;2023-04-08T12:03:56;12.63;;;9.30;;
12792;SDS011;6460;42.684;23.260;2023-04-08T12:06:26;10.53;;;9.40;;
12792;SDS011;6460;42.684;23.260;2023-04-08T12:08:54;13.23;;;10.37;;
12792;SDS011;6460;42.684;23.260;2023-04-08T12:11:21;11.33;;;8.97;;
12792;SDS011;6460;42.684;23.260;2023-04-08T12:13:50;16.33;;;9.40;;
12792;SDS011;6460;42.684;23.260;2023-04-08T12:16:17;13.50;;;10.10;;
12792;SDS011;6460;42.684;23.260;2023-04-08T12:18:45;10.97;;;8.50;;
12792;SDS011;6460;42.684;23.260;2023-04-08T12:21:13;10.50;;;9.07;;
12792;SDS011;6460;42.684;23.260;2023-04-08T12:23:40;9.93;;;8.57;;
12792;SDS011;6460;42.684;23.260;2023-04-08T12:26:08;10.33;;;8.10;;
12792;SDS011;6460;42.684;23.260;2023-04-08T12:28:35;8.70;;;7.67;;
12792;SDS011;6460;42.684;23.260;2023-04-08T12:31:04;9.57;;;7.97;;
12792;SDS011;6460;42.684;23.260;2023-04-08T12:33:31;9.73;;;8.40;;
12792;SDS011;6460;42.684;23.260;2023-04-08T12:35:59;10.40;;;8.73;;
12792;SDS011;6460;42.684;23.260;2023-04-08T12:38:26;12.73;;;9.10;;
12792;SDS011;6460;42.684;23.260;2023-04-08T12:40:53;13.77;;;9.53;;
12792;SDS011;6460;42.684;23.260;2023-04-08T12:43:21;11.97;;;9.87;;
12792;SDS011;6460;42.684;23.260;2023-04-08T12:45:49;13.27;;;9.20;;
12792;SDS011;6460;42.684;23.260;2023-04-08T12:48:17;11.33;;;9.20;;
12792;SDS011;6460;42.684;23.260;2023-04-08T12:50:45;10.73;;;8.93;;
12792;SDS011;6460;42.684;23.260;2023-04-08T12:53:12;11.47;;;9.07;;
12792;SDS011;6460;42.684;23.260;2023-04-08T12:55:39;11.23;;;8.17;;
12792;SDS011;6460;42.684;23.260;2023-04-08T12:58:06;8.50;;;7.47;;
12792;SDS011;6460;42.684;23.260;2023-04-08T13:00:33;8.80;;;7.90;;
12792;SDS011;6460;42.684;23.260;2023-04-08T13:03:03;11.13;;;7.87;;
12792;SDS011;6460;42.684;23.260;2023-04-08T13:05:32;9.33;;;7.50;;
12792;SDS011;6460;42.684;23.260;2023-04-08T13:08:00;8.17;;;7.37;;
12792;SDS011;6460;42.684;23.260;2023-04-08T13:10:27;8.60;;;7.70;;
12792;SDS011;6460;42.684;23.260;2023-04-08T13:12:54;10.07;;;8.27;;
12792;SDS011;6460;42.684;23.260;2023-04-08T13:15:22;9.33;;;8.43;;
12792;SDS011;6460;42.684;23.260;2023-04-08T13:17:49;10.27;;;8.67;;
12792;SDS011;6460;42.684;23.260;2023-04-08T13:20:16;9.63;;;8.50;;
12792;SDS011;6460;42.684;23.260;2023-04-08T13:22:45;9.33;;;7.97;;
12792;SDS011;6460;42.684;23.260;2023-04-08T13:25:12;9.23;;;8.33;;
12792;SDS011;6460;42.684;23.260;2023-04-08T13:27:39;7.67;;;6.97;;
12792;SDS011;6460;42.684;23.260;2023-04-08T13:30:07;10.70;;;8.23;;
12792;SDS011;6460;42.684;23.260;2023-04-08T13:32:35;11.17;;;9.40;;
12792;SDS011;6460;42.684;23.260;2023-04-08T13:35:02;12.77;;;9.03;;
12792;SDS011;6460;42.684;23.260;2023-04-08T13:37:30;11.10;;;9.90;;
12792;SDS011;6460;42.684;23.260;2023-04-08T13:39:58;10.77;;;9.60;;
12792;SDS011;6460;42.684;23.260;2023-04-08T13:42:26;11.50;;;8.47;;
12792;SDS011;6460;42.684;23.260;2023-04-08T13:44:55;9.60;;;8.70;;
12792;SDS011;6460;42.684;23.260;2023-04-08T13:47:23;9.33;;;8.43;;
12792;SDS011;6460;42.684;23.260;2023-04-08T13:49:51;9.10;;;8.17;;
12792;SDS011;6460;42.684;23.260;2023-04-08T13:52:18;8.83;;;7.93;;
12792;SDS011;6460;42.684;23.260;2023-04-08T13:54:46;8.50;;;7.60;;
12792;SDS011;6460;42.684;23.260;2023-04-08T13:57:14;9.27;;;8.00;;
12792;SDS011;6460;42.684;23.260;2023-04-08T13:59:41;9.07;;;8.20;;
12792;SDS011;6460;42.684;23.260;2023-04-08T14:02:08;9.13;;;8.23;;
12792;SDS011;6460;42.684;23.260;2023-04-08T14:04:37;8.83;;;8.03;;
12792;SDS011;6460;42.684;23.260;2023-04-08T14:07:05;7.53;;;6.73;;
12792;SDS011;6460;42.684;23.260;2023-04-08T14:09:32;8.67;;;7.20;;
12792;SDS011;6460;42.684;23.260;2023-04-08T14:12:00;11.43;;;7.73;;
12792;SDS011;6460;42.684;23.260;2023-04-08T14:14:29;8.50;;;7.60;;
12792;SDS011;6460;42.684;23.260;2023-04-08T14:16:56;8.00;;;7.20;;
12792;SDS011;6460;42.684;23.260;2023-04-08T14:19:23;8.17;;;7.37;;
12792;SDS011;6460;42.684;23.260;2023-04-08T14:21:50;7.57;;;6.70;;
12792;SDS011;6460;42.684;23.260;2023-04-08T14:24:18;7.60;;;6.80;;
12792;SDS011;6460;42.684;23.260;2023-04-08T14:26:45;7.97;;;7.17;;
12792;SDS011;6460;42.684;23.260;2023-04-08T14:29:12;8.80;;;7.37;;
12792;SDS011;6460;42.684;23.260;2023-04-08T14:31:41;8.93;;;8.03;;
12792;SDS011;6460;42.684;23.260;2023-04-08T14:34:08;8.47;;;7.53;;
12792;SDS011;6460;42.684;23.260;2023-04-08T14:36:35;10.17;;;8.13;;
12792;SDS011;6460;42.684;23.260;2023-04-08T14:39:02;8.53;;;7.57;;
12792;SDS011;6460;42.684;23.260;2023-04-08T14:41:30;9.43;;;8.43;;
12792;SDS011;6460;42.684;23.260;2023-04-08T14:43:57;9.73;;;8.67;;
12792;SDS011;6460;42.684;23.260;2023-04-08T14:46:24;10.30;;;9.17;;
12792;SDS011;6460;42.684;23.260;2023-04-08T14:48:53;10.27;;;9.07;;
12792;SDS011;6460;42.684;23.260;2023-04-08T14:51:20;11.77;;;8.83;;
12792;SDS011;6460;42.684;23.260;2023-04-08T14:53:48;9.77;;;8.10;;
12792;SDS011;6460;42.684;23.260;2023-04-08T14:56:15;9.27;;;7.80;;
12792;SDS011;6460;42.684;23.260;2023-04-08T14:58:42;7.90;;;7.10;;
12792;SDS011;6460;42.684;23.260;2023-04-08T15:01:09;8.33;;;7.37;;
12792;SDS011;6460;42.684;23.260;2023-04-08T15:03:36;7.83;;;7.03;;
12792;SDS011;6460;42.684;23.260;2023-04-08T15:06:05;9.17;;;7.47;;
12792;SDS011;6460;42.684;23.260;2023-04-08T15:08:32;7.57;;;6.87;;
12792;SDS011;6460;42.684;23.260;2023-04-08T15:11:00;9.53;;;7.97;;
12792;SDS011;6460;42.684;23.260;2023-04-08T15:13:27;9.67;;;7.13;;
12792;SDS011;6460;42.684;23.260;2023-04-08T15:15:55;8.60;;;7.40;;
12792;SDS011;6460;42.684;23.260;2023-04-08T15:18:22;7.83;;;7.07;;
12792;SDS011;6460;42.684;23.260;2023-04-08T15:20:49;7.33;;;6.63;;
12792;SDS011;6460;42.684;23.260;2023-04-08T15:23:18;10.30;;;9.20;;
12792;SDS011;6460;42.684;23.260;2023-04-08T15:25:45;10.93;;;9.80;;
12792;SDS011;6460;42.684;23.260;2023-04-08T15:28:12;8.10;;;7.30;;
12792;SDS011;6460;42.684;23.260;2023-04-08T15:30:40;8.53;;;7.37;;
12792;SDS011;6460;42.684;23.260;2023-04-08T15:33:07;9.43;;;7.07;;
12792;SDS011;6460;42.684;23.260;2023-04-08T15:35:35;8.00;;;7.20;;
12792;SDS011;6460;42.684;23.260;2023-04-08T15:38:03;8.77;;;7.67;;
12792;SDS011;6460;42.684;23.260;2023-04-08T15:40:33;8.70;;;6.93;;
12792;SDS011;6460;42.684;23.260;2023-04-08T15:43:00;9.20;;;8.30;;
12792;SDS011;6460;42.684;23.260;2023-04-08T15:45:28;7.63;;;6.83;;
12792;SDS011;6460;42.684;23.260;2023-04-08T15:47:55;8.90;;;7.70;;
12792;SDS011;6460;42.684;23.260;2023-04-08T15:50:27;8.97;;;7.90;;
12792;SDS011;6460;42.684;23.260;2023-04-08T15:52:54;9.17;;;8.27;;
12792;SDS011;6460;42.684;23.260;2023-04-08T15:55:22;9.97;;;8.37;;
12792;SDS011;6460;42.684;23.260;2023-04-08T15:57:50;10.33;;;8.03;;
12792;SDS011;6460;42.684;23.260;2023-04-08T16:00:21;9.97;;;8.40;;
12792;SDS011;6460;42.684;23.260;2023-04-08T16:02:49;10.83;;;9.73;;
12792;SDS011;6460;42.684;23.260;2023-04-08T16:05:18;12.90;;;10.40;;
12792;SDS011;6460;42.684;23.260;2023-04-08T16:07:45;10.77;;;9.03;;
12792;SDS011;6460;42.684;23.260;2023-04-08T16:10:13;11.23;;;9.00;;
12792;SDS011;6460;42.684;23.260;2023-04-08T16:12:40;11.83;;;9.10;;
12792;SDS011;6460;42.684;23.260;2023-04-08T16:15:09;17.97;;;14.00;;
12792;SDS011;6460;42.684;23.260;2023-04-08T16:17:36;21.23;;;15.47;;
12792;SDS011;6460;42.684;23.260;2023-04-08T16:20:04;18.73;;;14.70;;
12792;SDS011;6460;42.684;23.260;2023-04-08T16:22:32;25.43;;;18.47;;
12792;SDS011;6460;42.684;23.260;2023-04-08T16:25:01;21.27;;;15.83;;
12792;SDS011;6460;42.684;23.260;2023-04-08T16:27:28;21.30;;;14.43;;
12792;SDS011;6460;42.684;23.260;2023-04-08T16:29:56;21.50;;;15.00;;
12792;SDS011;6460;42.684;23.260;2023-04-08T16:32:24;21.37;;;15.97;;
12792;SDS011;6460;42.684;23.260;2023-04-08T16:34:52;19.37;;;14.77;;
12792;SDS011;6460;42.684;23.260;2023-04-08T16:37:19;18.63;;;14.77;;
12792;SDS011;6460;42.684;23.260;2023-04-08T16:39:46;22.03;;;16.57;;
12792;SDS011;6460;42.684;23.260;2023-04-08T16:42:13;21.40;;;16.63;;
12792;SDS011;6460;42.684;23.260;2023-04-08T16:44:41;19.30;;;15.53;;
12792;SDS011;6460;42.684;23.260;2023-04-08T16:47:08;17.77;;;14.10;;
12792;SDS011;6460;42.684;23.260;2023-04-08T16:49:37;10.73;;;8.70;;
12792;SDS011;6460;42.684;23.260;2023-04-08T16:52:04;6.93;;;5.80;;
12792;SDS011;6460;42.684;23.260;2023-04-08T16:54:31;6.80;;;6.13;;
12792;SDS011;6460;42.684;23.260;2023-04-08T16:56:58;8.03;;;6.80;;
12792;SDS011;6460;42.684;23.260;2023-04-08T16:59:26;7.30;;;6.53;;
12792;SDS011;6460;42.684;23.260;2023-04-08T17:01:53;8.63;;;7.23;;
12792;SDS011;6460;42.684;23.260;2023-04-08T17:04:21;9.97;;;7.93;;
12792;SDS011;6460;42.684;23.260;2023-04-08T17:06:50;8.97;;;7.73;;
12792;SDS011;6460;42.684;23.260;2023-04-08T17:09:17;11.47;;;8.77;;
12792;SDS011;6460;42.684;23.260;2023-04-08T17:11:44;14.07;;;10.13;;
12792;SDS011;6460;42.684;23.260;2023-04-08T17:14:11;13.87;;;10.30;;
12792;SDS011;6460;42.684;23.260;2023-04-08T17:16:39;13.20;;;10.50;;
12792;SDS011;6460;42.684;23.260;2023-04-08T17:19:06;12.97;;;11.00;;
12792;SDS011;6460;42.684;23.260;2023-04-08T17:21:33;12.30;;;10.47;;
12792;SDS011;6460;42.684;23.260;2023-04-08T17:24:02;15.53;;;10.90;;
12792;SDS011;6460;42.684;23.260;2023-04-08T17:26:29;15.40;;;11.67;;
12792;SDS011;6460;42.684;23.260;2023-04-08T17:28:57;15.10;;;10.20;;
12792;SDS011;6460;42.684;23.260;2023-04-08T17:31:24;14.23;;;11.40;;
12792;SDS011;6460;42.684;23.260;2023-04-08T17:33:51;15.80;;;12.07;;
12792;SDS011;6460;42.684;23.260;2023-04-08T17:36:18;13.60;;;11.03;;
12792;SDS011;6460;42.684;23.260;2023-04-08T17:38:46;14.90;;;12.57;;
12792;SDS011;6460;42.684;23.260;2023-04-08T17:41:15;17.57;;;12.90;;
12792;SDS011;6460;42.684;23.260;2023-04-08T17:43:42;17.50;;;13.73;;
12792;SDS011;6460;42.684;23.260;2023-04-08T17:46:09;17.93;;;14.33;;
12792;SDS011;6460;42.684;23.260;2023-04-08T17:48:37;17.30;;;12.80;;
12792;SDS011;6460;42.684;23.260;2023-04-08T17:51:04;15.67;;;12.57;;
12792;SDS011;6460;42.684;23.260;2023-04-08T17:53:32;17.57;;;12.73;;
12792;SDS011;6460;42.684;23.260;2023-04-08T17:56:00;17.67;;;12.77;;
12792;SDS011;6460;42.684;23.260;2023-04-08T17:58:28;18.07;;;14.00;;
12792;SDS011;6460;42.684;23.260;2023-04-08T18:00:55;19.30;;;14.40;;
12792;SDS011;6460;42.684;23.260;2023-04-08T18:03:23;18.90;;;14.57;;
12792;SDS011;6460;42.684;23.260;2023-04-08T18:05:50;16.70;;;13.57;;
12792;SDS011;6460;42.684;23.260;2023-04-08T18:08:19;19.40;;;14.80;;
12792;SDS011;6460;42.684;23.260;2023-04-08T18:10:46;23.67;;;17.23;;
12792;SDS011;6460;42.684;23.260;2023-04-08T18:13:13;23.07;;;17.03;;
12792;SDS011;6460;42.684;23.260;2023-04-08T18:15:42;26.13;;;19.93;;
12792;SDS011;6460;42.684;23.260;2023-04-08T18:18:09;20.20;;;16.73;;
12792;SDS011;6460;42.684;23.260;2023-04-08T18:20:36;20.80;;;15.83;;
12792;SDS011;6460;42.684;23.260;2023-04-08T18:23:03;21.17;;;16.27;;
12792;SDS011;6460;42.684;23.260;2023-04-08T18:25:31;35.63;;;28.00;;
12792;SDS011;6460;42.684;23.260;2023-04-08T18:27:58;41.07;;;31.33;;
12792;SDS011;6460;42.684;23.260;2023-04-08T18:30:26;44.80;;;31.67;;
12792;SDS011;6460;42.684;23.260;2023-04-08T18:32:56;46.33;;;30.57;;
12792;SDS011;6460;42.684;23.260;2023-04-08T18:35:23;46.37;;;32.73;;
12792;SDS011;6460;42.684;23.260;2023-04-08T18:37:50;40.00;;;28.13;;
12792;SDS011;6460;42.684;23.260;2023-04-08T18:40:18;29.43;;;21.50;;
12792;SDS011;6460;42.684;23.260;2023-04-08T18:42:45;20.83;;;15.40;;
12792;SDS011;6460;42.684;23.260;2023-04-08T18:45:12;17.43;;;13.30;;
12792;SDS011;6460;42.684;23.260;2023-04-08T18:47:40;15.67;;;12.23;;
12792;SDS011;6460;42.684;23.260;2023-04-08T18:50:09;15.03;;;11.73;;
12792;SDS011;6460;42.684;23.260;2023-04-08T18:52:36;12.77;;;10.53;;
12792;SDS011;6460;42.684;23.260;2023-04-08T18:55:04;14.93;;;12.47;;